Terminal Aerodrome Forecast
Issued by NWS Shreveport, LA

Home | Current Version | Previous Version | Text Only | Print | Product List | Glossary On
Versions: 1 2 3 4 5 6 7 8 9 10 11 12 13 14 15 16 17
248
FTUS44 KSHV 181725
TAFMLU
TAF
KMLU 181725Z 1818/1918 06008KT 6SM -SHRA BR OVC007
      TEMPO 1818/1820 3SM SHRA BR OVC004
     FM190000 18005KT 2SM -SHRA BR OVC004
     FM191700 21005KT 4SM -SHRA BR OVC007=

USA.gov is the U.S. government's official web portal to all federal, state and local government web resources and services.